Time;durP1;ratioP1;P1;durP2;ratioP2;P2;SDS_P1;SDS_P2;PMS_P1;PMS_P2;Temp;Humidity;BMP_temperature;BMP_pressure;BME280_temperature;BME280_humidity;BME280_pressure;Samples;Min_cycle;Max_cycle;Signal;HPM_P1;HPM_P2
2023/08/24 00:00:42;;;;;;;8.13;1.60;;;21.20;99.90;;;;;;4164337;28;20267;-86
2023/08/24 00:02:43;;;;;;;7.60;1.88;;;21.00;99.90;;;;;;4180817;28;20179;-85
2023/08/24 00:04:43;;;;;;;4.15;1.92;;;21.00;99.90;;;;;;4148147;28;20181;-85
2023/08/24 00:06:44;;;;;;;2.83;1.88;;;20.90;99.90;;;;;;4181086;28;20801;-86
2023/08/24 00:08:45;;;;;;;2.88;1.60;;;20.90;99.90;;;;;;4164179;28;20261;-85
2023/08/24 00:10:46;;;;;;;4.53;1.95;;;20.80;99.90;;;;;;4148091;28;20675;-85
2023/08/24 00:12:47;;;;;;;3.42;1.60;;;20.70;99.90;;;;;;4164640;28;20267;-85
2023/08/24 00:14:48;;;;;;;5.15;2.03;;;20.60;99.90;;;;;;4148067;28;20165;-86
2023/08/24 00:16:49;;;;;;;3.80;1.77;;;20.60;99.90;;;;;;4148048;28;20181;-86
2023/08/24 00:18:50;;;;;;;3.53;1.70;;;20.70;99.90;;;;;;4147892;28;20700;-86
2023/08/24 00:20:50;;;;;;;3.03;1.70;;;20.70;99.90;;;;;;4164365;28;20204;-86
2023/08/24 00:22:51;;;;;;;3.03;1.65;;;20.70;99.90;;;;;;4164555;28;20182;-86
2023/08/24 00:24:52;;;;;;;5.18;2.13;;;20.80;99.90;;;;;;4148084;28;20172;-86
2023/08/24 00:26:53;;;;;;;3.33;1.63;;;20.80;99.90;;;;;;4147794;28;20176;-86
2023/08/24 00:28:53;;;;;;;6.10;1.95;;;20.90;99.90;;;;;;4148141;28;20626;-86
2023/08/24 00:30:55;;;;;;;5.95;2.47;;;20.90;99.90;;;;;;4147943;28;20288;-85
2023/08/24 00:32:56;;;;;;;2.45;1.33;;;20.80;99.90;;;;;;4147982;28;20200;-86
2023/08/24 00:34:57;;;;;;;2.60;1.73;;;20.90;99.90;;;;;;4164222;28;20660;-85
2023/08/24 00:36:58;;;;;;;11.32;2.67;;;20.90;99.90;;;;;;4180739;28;20164;-86
2023/08/24 00:38:58;;;;;;;4.03;1.65;;;20.80;99.90;;;;;;4151060;28;20177;-86
2023/08/24 00:40:59;;;;;;;6.85;2.65;;;20.80;99.90;;;;;;4167300;28;20212;-86
2023/08/24 00:43:00;;;;;;;3.90;2.42;;;20.90;99.90;;;;;;4151276;28;20169;-86
2023/08/24 00:45:03;;;;;;;2.83;1.38;;;20.90;99.90;;;;;;4184023;28;20171;-86
2023/08/24 00:47:05;;;;;;;2.50;1.80;;;21.00;99.90;;;;;;4167275;28;20176;-86
2023/08/24 00:49:06;;;;;;;2.35;1.45;;;20.90;99.90;;;;;;4166888;28;20183;-86
2023/08/24 00:51:07;;;;;;;2.47;1.70;;;21.00;99.90;;;;;;4183968;28;20184;-86
2023/08/24 00:53:08;;;;;;;3.67;1.70;;;21.30;99.90;;;;;;4150961;28;20185;-86
2023/08/24 00:55:09;;;;;;;6.80;2.40;;;21.60;99.90;;;;;;4183915;28;20607;-87
2023/08/24 00:57:11;;;;;;;4.32;1.70;;;21.80;99.90;;;;;;4167053;28;20176;-86
2023/08/24 00:59:12;;;;;;;2.85;1.73;;;22.00;99.90;;;;;;4151156;28;20247;-86
2023/08/24 01:01:13;;;;;;;3.38;1.38;;;22.00;99.90;;;;;;4150771;28;20681;-86
2023/08/24 01:03:15;;;;;;;3.85;2.08;;;21.90;99.90;;;;;;4150796;28;20184;-86
2023/08/24 01:05:17;;;;;;;4.30;2.05;;;22.10;99.90;;;;;;4167054;28;20176;-87
2023/08/24 01:07:19;;;;;;;3.67;1.80;;;22.20;99.90;;;;;;4150592;28;20169;-86
2023/08/24 01:09:21;;;;;;;4.82;1.90;;;22.10;99.90;;;;;;4150584;28;20210;-86
2023/08/24 01:12:05;;;;;;;3.35;1.83;;;22.00;99.90;;;;;;4183683;28;20215;-86
2023/08/24 01:14:26;;;;;;;3.40;1.98;;;22.10;99.90;;;;;;4130516;28;20186;-88
2023/08/24 01:16:29;;;;;;;1.98;1.40;;;22.30;99.90;;;;;;4150821;28;20185;-86
2023/08/24 01:18:31;;;;;;;3.50;1.67;;;22.30;99.90;;;;;;4167037;28;20588;-85
2023/08/24 01:20:34;;;;;;;6.05;1.50;;;22.20;99.90;;;;;;4166686;28;20219;-86
2023/08/24 01:22:44;;;;;;;4.07;1.67;;;22.20;99.90;;;;;;4167191;28;20585;-89
2023/08/24 01:25:09;;;;;;;6.47;2.08;;;22.20;99.90;;;;;;4168209;28;20629;-86
2023/08/24 01:27:11;;;;;;;3.70;2.28;;;22.20;99.90;;;;;;4166749;28;20180;-86
2023/08/24 01:29:12;;;;;;;3.83;1.65;;;22.10;99.90;;;;;;4166914;28;20183;-90
2023/08/24 01:31:15;;;;;;;2.92;1.80;;;22.10;99.90;;;;;;4150336;28;20287;-86
2023/08/24 01:33:16;;;;;;;2.20;1.63;;;22.00;99.90;;;;;;4150229;28;20581;-86
2023/08/24 01:35:17;;;;;;;3.00;1.88;;;22.00;99.90;;;;;;4166717;28;20171;-86
2023/08/24 01:37:17;;;;;;;3.30;1.67;;;22.20;99.90;;;;;;4150292;28;20693;-86
2023/08/24 01:39:33;;;;;;;2.85;1.55;;;22.20;99.90;;;;;;4166611;28;20227;-86
2023/08/24 01:41:39;;;;;;;3.95;1.58;;;21.70;99.90;;;;;;4166299;28;20220;-86
2023/08/24 01:43:42;;;;;;;3.47;1.90;;;21.30;99.90;;;;;;4166478;28;20631;-86
2023/08/24 01:45:44;;;;;;;2.83;1.58;;;21.00;99.90;;;;;;4166408;28;20206;-87
2023/08/24 01:47:48;;;;;;;8.45;1.88;;;21.00;99.90;;;;;;4166341;28;20176;-87
2023/08/24 01:49:49;;;;;;;2.78;1.33;;;20.90;99.90;;;;;;4182398;28;20259;-87
2023/08/24 01:51:50;;;;;;;2.42;1.25;;;20.80;99.90;;;;;;4166630;28;20258;-86
2023/08/24 01:53:51;;;;;;;2.05;1.42;;;20.90;99.90;;;;;;4166477;28;20172;-86
2023/08/24 01:55:53;;;;;;;3.30;1.48;;;21.00;99.90;;;;;;4167294;28;20168;-87
2023/08/24 01:57:56;;;;;;;3.55;1.48;;;21.00;99.90;;;;;;4166254;28;20219;-88
2023/08/24 01:59:57;;;;;;;2.42;1.45;;;20.80;99.90;;;;;;4166081;28;20234;-86
2023/08/24 02:01:58;;;;;;;2.25;1.48;;;20.90;99.90;;;;;;4166344;28;20219;-86
2023/08/24 02:03:59;;;;;;;2.22;1.52;;;21.20;99.90;;;;;;4182714;28;20606;-86
2023/08/24 02:06:00;;;;;;;3.95;2.28;;;21.20;99.90;;;;;;4182632;28;20587;-86
2023/08/24 02:08:01;;;;;;;4.93;2.58;;;21.00;99.90;;;;;;4166187;28;20180;-85
2023/08/24 02:10:02;;;;;;;3.10;1.63;;;21.00;99.90;;;;;;4165984;28;20259;-86
2023/08/24 02:12:03;;;;;;;10.38;1.88;;;21.00;99.90;;;;;;4182157;28;20183;-87
2023/08/24 02:14:04;;;;;;;3.13;1.40;;;20.80;99.90;;;;;;4149617;28;20169;-86
2023/08/24 02:16:12;;;;;;;4.57;1.38;;;20.70;99.90;;;;;;4150460;28;20224;-88
2023/08/24 02:18:12;;;;;;;2.17;1.30;;;20.60;99.90;;;;;;4149535;28;20181;-86
2023/08/24 02:20:14;;;;;;;3.38;1.65;;;20.60;99.90;;;;;;4167024;28;20683;-86
2023/08/24 02:22:15;;;;;;;2.92;1.77;;;20.80;99.90;;;;;;4182696;28;20262;-86
2023/08/24 02:24:15;;;;;;;3.60;1.77;;;20.80;99.90;;;;;;4165786;28;20671;-86
2023/08/24 02:26:16;;;;;;;1.90;1.35;;;20.90;99.90;;;;;;4182396;28;20655;-87
2023/08/24 02:28:17;;;;;;;2.97;1.50;;;20.90;99.90;;;;;;4149513;28;20610;-86
2023/08/24 02:30:17;;;;;;;2.33;1.42;;;21.10;99.90;;;;;;4149215;28;20708;-85
2023/08/24 02:32:18;;;;;;;7.95;1.75;;;21.30;99.90;;;;;;4149380;28;20173;-87
2023/08/24 02:34:20;;;;;;;4.45;1.73;;;21.00;99.90;;;;;;4149235;28;20196;-86
2023/08/24 02:36:20;;;;;;;2.33;1.13;;;21.20;99.90;;;;;;4182135;28;20217;-86
2023/08/24 02:38:21;;;;;;;3.90;1.75;;;21.30;99.90;;;;;;4149281;28;20173;-85
2023/08/24 02:40:22;;;;;;;2.95;1.85;;;21.40;99.90;;;;;;4149100;28;20223;-86
2023/08/24 02:42:24;;;;;;;2.65;1.10;;;21.20;99.90;;;;;;4149214;28;20184;-86
2023/08/24 02:44:26;;;;;;;4.40;1.80;;;21.30;99.90;;;;;;4182239;28;20195;-86
2023/08/24 02:46:27;;;;;;;3.92;2.00;;;21.20;99.90;;;;;;4165663;28;20188;-86
2023/08/24 02:48:28;;;;;;;2.20;1.63;;;21.40;99.90;;;;;;4165467;28;20629;-86
2023/08/24 02:50:28;;;;;;;2.40;1.35;;;21.40;99.90;;;;;;4165599;28;20280;-86
2023/08/24 02:52:29;;;;;;;2.83;1.20;;;21.30;99.90;;;;;;4165616;28;20207;-88
2023/08/24 02:54:30;;;;;;;2.47;1.48;;;21.10;99.90;;;;;;4149208;28;20172;-87
2023/08/24 02:56:31;;;;;;;2.97;1.60;;;20.70;99.90;;;;;;4148846;28;20173;-86
2023/08/24 02:58:31;;;;;;;6.97;1.92;;;20.50;99.90;;;;;;4148802;28;20224;-87
2023/08/24 03:00:33;;;;;;;3.10;1.80;;;20.40;99.90;;;;;;4148410;28;20204;-86
2023/08/24 03:02:34;;;;;;;2.67;1.42;;;20.30;99.90;;;;;;4148647;28;20237;-86
2023/08/24 03:04:35;;;;;;;3.75;1.75;;;20.30;99.90;;;;;;4165277;28;20588;-86
2023/08/24 03:06:35;;;;;;;2.90;1.17;;;20.40;99.90;;;;;;4165247;28;20184;-86
2023/08/24 03:08:36;;;;;;;7.93;1.70;;;20.50;99.90;;;;;;4165150;28;20652;-86
2023/08/24 03:10:37;;;;;;;3.22;1.30;;;20.50;99.90;;;;;;4148666;28;20193;-87
2023/08/24 03:12:38;;;;;;;4.30;2.10;;;20.60;99.90;;;;;;4165229;28;20188;-87
2023/08/24 03:14:39;;;;;;;2.50;1.13;;;20.50;99.90;;;;;;4165211;28;20218;-89
2023/08/24 03:16:40;;;;;;;2.53;1.70;;;20.40;99.90;;;;;;4165080;28;20237;-89
2023/08/24 03:18:40;;;;;;;2.20;1.52;;;20.20;99.90;;;;;;4164681;28;20161;-87
2023/08/24 03:20:42;;;;;;;5.75;1.88;;;20.20;99.90;;;;;;4148578;28;20200;-87
2023/08/24 03:22:43;;;;;;;2.88;1.35;;;20.20;99.90;;;;;;4165022;28;20545;-86
2023/08/24 03:24:43;;;;;;;1.48;1.00;;;20.20;99.90;;;;;;4165184;28;20176;-87
2023/08/24 03:26:44;;;;;;;2.28;1.23;;;20.30;99.90;;;;;;4181679;28;20263;-90
2023/08/24 03:28:45;;;;;;;3.08;1.48;;;20.70;99.90;;;;;;4148516;28;20184;-86
2023/08/24 03:30:52;;;;;;;5.68;2.08;;;21.20;99.90;;;;;;4148387;28;20283;-86
2023/08/24 03:32:53;;;;;;;2.33;1.30;;;21.70;99.90;;;;;;4165160;28;20196;-86
2023/08/24 03:34:59;;;;;;;1.92;1.20;;;22.00;99.90;;;;;;4165251;28;20169;-86
2023/08/24 03:37:00;;;;;;;2.53;1.58;;;22.00;99.90;;;;;;4148480;28;20169;-85
2023/08/24 03:39:01;;;;;;;4.32;1.63;;;21.70;99.90;;;;;;4148499;28;20173;-86
2023/08/24 03:41:05;;;;;;;2.63;1.58;;;21.40;99.90;;;;;;4148538;28;20217;-86
2023/08/24 03:43:06;;;;;;;2.83;1.40;;;21.00;99.90;;;;;;4148505;28;20188;-86
2023/08/24 03:45:07;;;;;;;3.25;1.30;;;20.70;99.90;;;;;;4148355;28;20169;-86
2023/08/24 03:47:08;;;;;;;5.97;1.75;;;20.50;99.90;;;;;;4165825;28;20176;-87
2023/08/24 03:49:09;;;;;;;4.93;2.05;;;20.40;99.90;;;;;;4164497;28;20175;-86
2023/08/24 03:51:10;;;;;;;2.72;1.30;;;20.30;99.90;;;;;;4164649;28;20680;-86
2023/08/24 03:53:11;;;;;;;3.95;1.42;;;20.30;99.90;;;;;;4164807;28;20172;-87
2023/08/24 03:55:12;;;;;;;3.47;1.23;;;20.40;99.90;;;;;;4164804;28;20349;-89
2023/08/24 03:57:12;;;;;;;3.58;1.35;;;20.50;99.90;;;;;;4148318;28;20208;-86
2023/08/24 03:59:13;;;;;;;5.50;1.50;;;20.50;99.90;;;;;;4164886;28;20222;-86
2023/08/24 04:01:15;;;;;;;1.92;1.20;;;20.50;99.90;;;;;;4147890;28;20315;-86
2023/08/24 04:03:16;;;;;;;4.05;1.63;;;20.30;99.90;;;;;;4148005;28;20216;-86
2023/08/24 04:05:17;;;;;;;3.05;1.60;;;20.20;99.90;;;;;;4147975;28;20169;-86
2023/08/24 04:07:18;;;;;;;2.08;1.35;;;20.00;99.90;;;;;;4164340;28;20180;-86
2023/08/24 04:09:22;;;;;;;3.58;1.85;;;20.00;99.90;;;;;;4148076;28;20173;-86
2023/08/24 04:11:23;;;;;;;4.72;1.80;;;20.20;99.90;;;;;;4148110;28;20197;-86
2023/08/24 04:13:23;;;;;;;2.22;1.27;;;20.10;99.90;;;;;;4147986;28;20562;-88
2023/08/24 04:15:25;;;;;;;3.85;1.70;;;19.90;99.90;;;;;;4164522;28;20179;-88
2023/08/24 04:17:26;;;;;;;3.60;1.83;;;19.80;99.90;;;;;;4148234;28;20184;-88
2023/08/24 04:19:27;;;;;;;1.85;1.23;;;19.80;99.90;;;;;;4148207;28;20176;-87
2023/08/24 04:21:27;;;;;;;7.88;1.67;;;19.70;99.90;;;;;;4164315;28;20220;-86
2023/08/24 04:23:28;;;;;;;2.90;1.40;;;19.60;99.90;;;;;;4147946;28;20784;-87
2023/08/24 04:25:30;;;;;;;2.97;1.70;;;19.50;99.90;;;;;;4147920;28;20176;-87
2023/08/24 04:27:31;;;;;;;3.80;1.52;;;19.50;99.90;;;;;;4147974;28;20230;-86
2023/08/24 04:29:32;;;;;;;3.25;1.75;;;19.50;99.90;;;;;;4164315;28;20180;-88
2023/08/24 04:31:32;;;;;;;3.58;1.90;;;19.60;99.90;;;;;;4164260;28;20196;-86
2023/08/24 04:33:33;;;;;;;1.85;1.25;;;19.70;99.90;;;;;;4147975;28;20650;-89
2023/08/24 04:35:35;;;;;;;2.00;1.40;;;19.80;99.90;;;;;;4147947;28;20215;-86
2023/08/24 04:37:38;;;;;;;2.13;1.30;;;19.90;99.90;;;;;;4164486;28;20200;-87
2023/08/24 04:39:38;;;;;;;6.50;1.50;;;19.90;99.90;;;;;;4148167;28;20272;-88
2023/08/24 04:41:39;;;;;;;2.25;1.60;;;20.00;99.90;;;;;;4147675;28;20216;-86
2023/08/24 04:43:40;;;;;;;2.70;1.20;;;19.90;99.90;;;;;;4147840;28;20169;-86
2023/08/24 04:45:40;;;;;;;3.33;1.80;;;19.90;99.90;;;;;;4180632;28;20183;-87
2023/08/24 04:47:41;;;;;;;3.25;1.50;;;19.90;99.90;;;;;;4147671;28;20180;-87
2023/08/24 04:49:42;;;;;;;3.50;1.15;;;19.90;99.90;;;;;;4180478;28;20275;-87
2023/08/24 04:51:43;;;;;;;2.20;1.20;;;19.90;99.90;;;;;;4147935;28;20681;-87
2023/08/24 04:53:44;;;;;;;1.95;1.15;;;19.80;99.90;;;;;;4147866;28;20192;-87
2023/08/24 04:55:45;;;;;;;5.30;1.58;;;19.80;99.90;;;;;;4147415;28;20177;-86
2023/08/24 04:57:46;;;;;;;2.40;1.38;;;19.80;99.90;;;;;;4147693;28;20180;-87
2023/08/24 04:59:47;;;;;;;3.03;1.48;;;19.80;99.90;;;;;;4147661;28;20665;-86
2023/08/24 05:01:47;;;;;;;2.83;0.88;;;19.80;99.90;;;;;;4147634;28;20275;-87
2023/08/24 05:03:48;;;;;;;2.15;1.27;;;19.90;99.90;;;;;;4147475;28;20681;-86
2023/08/24 05:05:49;;;;;;;19.55;2.17;;;19.90;99.90;;;;;;4164371;28;20204;-86
2023/08/24 05:07:50;;;;;;;2.70;1.52;;;19.80;99.90;;;;;;4180406;28;20167;-86
2023/08/24 05:09:50;;;;;;;1.45;1.08;;;19.60;99.90;;;;;;4147622;28;20177;-86
2023/08/24 05:11:51;;;;;;;2.70;1.83;;;19.60;99.90;;;;;;4147780;28;20255;-86
2023/08/24 05:13:52;;;;;;;2.85;1.27;;;19.60;99.90;;;;;;4147492;28;20180;-86
2023/08/24 05:15:53;;;;;;;6.75;1.90;;;19.70;99.90;;;;;;4147782;28;20173;-86
2023/08/24 05:17:55;;;;;;;6.28;1.25;;;19.90;99.90;;;;;;4147575;28;20173;-86
2023/08/24 05:19:56;;;;;;;2.05;1.38;;;20.10;99.90;;;;;;4147542;28;20307;-86
2023/08/24 05:21:57;;;;;;;2.70;1.15;;;20.20;99.90;;;;;;4180166;28;20211;-86
2023/08/24 05:23:58;;;;;;;3.95;1.20;;;20.50;99.90;;;;;;4164113;28;20169;-86
2023/08/24 05:26:00;;;;;;;2.40;1.45;;;20.70;99.90;;;;;;4166827;28;20263;-86
2023/08/24 05:28:01;;;;;;;2.55;0.95;;;20.70;99.90;;;;;;4183295;28;20172;-86
2023/08/24 05:30:01;;;;;;;2.38;1.23;;;20.70;99.90;;;;;;4150280;28;20739;-86
2023/08/24 05:32:02;;;;;;;1.88;1.25;;;20.80;99.90;;;;;;4150069;28;20216;-86
2023/08/24 05:34:03;;;;;;;1.42;1.00;;;20.80;99.90;;;;;;4150386;28;20173;-86
2023/08/24 05:36:04;;;;;;;1.70;1.10;;;20.80;99.90;;;;;;4150197;28;20268;-86
2023/08/24 05:38:05;;;;;;;3.10;1.33;;;20.80;99.90;;;;;;4166470;28;20172;-87
2023/08/24 05:40:07;;;;;;;1.63;1.00;;;20.90;99.90;;;;;;4166660;28;20283;-86
2023/08/24 05:42:08;;;;;;;5.15;1.90;;;20.90;99.90;;;;;;4149891;28;20248;-86
2023/08/24 05:44:09;;;;;;;2.90;1.30;;;20.80;99.90;;;;;;4166324;28;20637;-86
2023/08/24 05:46:10;;;;;;;11.02;2.08;;;20.90;99.90;;;;;;4149959;28;20208;-87
2023/08/24 05:48:11;;;;;;;5.63;1.85;;;20.70;99.90;;;;;;4149899;28;20789;-86
2023/08/24 05:50:12;;;;;;;2.95;1.70;;;20.70;99.90;;;;;;4150153;28;20227;-86
2023/08/24 05:52:13;;;;;;;5.25;1.70;;;20.60;99.90;;;;;;4149996;28;20183;-86
2023/08/24 05:54:18;;;;;;;6.63;1.30;;;20.40;99.90;;;;;;4166431;28;20199;-86
2023/08/24 05:56:19;;;;;;;1.92;1.48;;;20.50;99.90;;;;;;4166298;28;20186;-86
2023/08/24 05:58:19;;;;;;;2.95;1.80;;;20.40;99.90;;;;;;4166160;28;20177;-86
2023/08/24 06:00:22;;;;;;;2.80;1.52;;;20.60;99.90;;;;;;4166114;28;20210;-86
2023/08/24 06:02:22;;;;;;;3.78;1.65;;;20.60;99.90;;;;;;4166259;28;20223;-86
2023/08/24 06:04:23;;;;;;;3.75;1.73;;;20.70;99.90;;;;;;4182740;28;20318;-86
2023/08/24 06:06:24;;;;;;;5.30;1.80;;;20.70;99.90;;;;;;4149776;28;20267;-86
2023/08/24 06:08:25;;;;;;;4.03;1.45;;;20.80;99.90;;;;;;4166065;28;20172;-86
2023/08/24 06:10:26;;;;;;;8.35;2.10;;;20.70;99.90;;;;;;4149624;28;20193;-86
2023/08/24 06:12:27;;;;;;;1.77;1.50;;;20.60;99.90;;;;;;4149788;28;20220;-85
2023/08/24 06:14:28;;;;;;;3.58;2.28;;;20.40;99.90;;;;;;4182593;28;20245;-86
2023/08/24 06:16:29;;;;;;;5.35;2.45;;;20.20;99.90;;;;;;4149897;28;20176;-86
2023/08/24 06:18:30;;;;;;;4.60;1.83;;;20.10;99.90;;;;;;4165840;28;20180;-86
2023/08/24 06:20:30;;;;;;;7.50;1.98;;;20.10;99.90;;;;;;4149216;28;20189;-86
2023/08/24 06:22:31;;;;;;;4.22;1.70;;;20.20;99.90;;;;;;4165719;28;20196;-86
2023/08/24 06:24:32;;;;;;;3.85;1.50;;;20.50;99.90;;;;;;4166004;28;20177;-87
2023/08/24 06:26:33;;;;;;;3.10;1.58;;;20.70;99.90;;;;;;4149588;28;20668;-86
2023/08/24 06:28:33;;;;;;;3.78;2.15;;;21.00;99.90;;;;;;4182060;28;20167;-87
2023/08/24 06:30:40;;;;;;;2.30;1.58;;;21.30;99.90;;;;;;4149207;28;20279;-86
2023/08/24 06:32:41;;;;;;;2.25;1.90;;;21.90;99.90;;;;;;4165605;28;20176;-86
2023/08/24 06:34:42;;;;;;;3.90;2.20;;;22.00;99.90;;;;;;4165702;28;20167;-86
2023/08/24 06:36:42;;;;;;;3.63;2.17;;;22.20;99.90;;;;;;4165733;28;20215;-86
2023/08/24 06:38:43;;;;;;;3.08;1.67;;;22.70;99.90;;;;;;4165792;28;20258;-86
2023/08/24 06:40:44;;;;;;;2.83;1.60;;;22.60;99.90;;;;;;4149254;28;20267;-86
2023/08/24 06:42:44;;;;;;;3.55;1.85;;;22.70;99.90;;;;;;4165400;28;20266;-87
2023/08/24 06:44:45;;;;;;;3.55;1.65;;;22.70;99.90;;;;;;4165553;28;20640;-87
2023/08/24 06:46:46;;;;;;;3.55;1.75;;;23.10;99.90;;;;;;4182240;28;20214;-86
2023/08/24 06:48:47;;;;;;;3.45;1.70;;;23.60;99.90;;;;;;4149009;28;20173;-86
2023/08/24 06:50:48;;;;;;;2.90;1.60;;;23.40;99.90;;;;;;4148938;28;20235;-86
2023/08/24 06:52:49;;;;;;;5.57;1.90;;;23.50;99.90;;;;;;4149064;28;20192;-87
2023/08/24 06:54:53;;;;;;;3.40;2.15;;;23.40;99.90;;;;;;4149199;28;20622;-87
2023/08/24 06:56:54;;;;;;;2.47;1.40;;;23.40;99.90;;;;;;4165539;28;20617;-87
2023/08/24 06:58:54;;;;;;;2.92;1.50;;;23.60;99.90;;;;;;4148935;28;20188;-87
2023/08/24 07:00:56;;;;;;;4.15;1.85;;;23.90;99.90;;;;;;4148783;28;20247;-87
2023/08/24 07:02:57;;;;;;;2.78;1.45;;;24.20;99.90;;;;;;4148904;28;20200;-87
2023/08/24 07:04:58;;;;;;;3.17;1.88;;;24.40;99.90;;;;;;4165594;28;20198;-88
2023/08/24 07:06:58;;;;;;;2.85;1.30;;;24.70;99.90;;;;;;4165511;28;20176;-87
2023/08/24 07:08:59;;;;;;;3.28;1.70;;;25.10;99.90;;;;;;4165391;28;20172;-88
2023/08/24 07:11:03;;;;;;;3.97;1.92;;;25.50;99.90;;;;;;4165177;28;20199;-87
2023/08/24 07:13:07;;;;;;;4.05;1.85;;;25.60;99.90;;;;;;4165193;28;20202;-87
2023/08/24 07:15:08;;;;;;;2.85;1.80;;;25.50;99.90;;;;;;4181637;28;20160;-87
2023/08/24 07:17:09;;;;;;;2.80;1.58;;;24.60;99.90;;;;;;4165301;28;20184;-86
2023/08/24 07:19:10;;;;;;;2.47;1.67;;;24.10;99.90;;;;;;4165045;28;20172;-87
2023/08/24 07:21:11;;;;;;;4.43;2.08;;;23.90;99.90;;;;;;4148518;28;20216;-87
2023/08/24 07:23:12;;;;;;;3.47;2.08;;;23.60;99.90;;;;;;4148630;28;20173;-86
2023/08/24 07:25:13;;;;;;;3.75;2.17;;;23.30;99.90;;;;;;4165114;28;20207;-87
2023/08/24 07:27:14;;;;;;;1.90;1.48;;;23.10;99.90;;;;;;4164810;28;20179;-87
2023/08/24 07:29:15;;;;;;;2.85;1.70;;;23.00;99.90;;;;;;4166115;28;20164;-87
2023/08/24 07:31:16;;;;;;;2.50;1.55;;;22.90;99.90;;;;;;4164656;28;20200;-87
2023/08/24 07:33:16;;;;;;;3.42;1.55;;;22.90;99.90;;;;;;4164488;28;20731;-86
2023/08/24 07:35:17;;;;;;;3.42;1.83;;;22.90;99.90;;;;;;4164636;28;20179;-87
2023/08/24 07:37:18;;;;;;;2.78;1.73;;;23.00;99.90;;;;;;4165002;28;20672;-87
2023/08/24 07:39:19;;;;;;;3.30;1.50;;;23.10;99.90;;;;;;4148506;28;20228;-86
2023/08/24 07:41:20;;;;;;;2.20;1.40;;;23.30;99.90;;;;;;4148348;28;20689;-87
2023/08/24 07:43:21;;;;;;;2.17;1.27;;;23.50;99.90;;;;;;4148242;28;20172;-87
2023/08/24 07:45:23;;;;;;;5.60;2.20;;;23.40;99.90;;;;;;4148066;28;20263;-86
2023/08/24 07:47:24;;;;;;;2.25;1.60;;;23.50;99.90;;;;;;4147839;28;20550;-87
2023/08/24 07:49:24;;;;;;;2.30;1.80;;;23.30;99.90;;;;;;4148402;28;20228;-87
2023/08/24 07:51:25;;;;;;;3.97;1.70;;;23.20;99.90;;;;;;4164555;28;20700;-86
2023/08/24 07:53:26;;;;;;;3.08;1.65;;;23.10;99.90;;;;;;4148505;28;20746;-87
2023/08/24 07:55:27;;;;;;;4.72;1.92;;;23.00;99.90;;;;;;4148126;28;20212;-87
2023/08/24 07:57:27;;;;;;;3.53;1.85;;;23.10;99.90;;;;;;4148220;28;20275;-86
2023/08/24 07:59:28;;;;;;;3.17;1.85;;;23.50;99.90;;;;;;4164490;28;20648;-86
2023/08/24 08:01:29;;;;;;;3.28;1.80;;;23.80;99.90;;;;;;4164405;28;20243;-87
2023/08/24 08:03:30;;;;;;;3.60;2.10;;;24.10;99.90;;;;;;4148182;28;20664;-86
2023/08/24 08:05:31;;;;;;;4.53;1.73;;;24.40;99.90;;;;;;4148258;28;20173;-87
2023/08/24 08:07:32;;;;;;;2.47;1.52;;;24.50;99.90;;;;;;4148305;28;20243;-87
2023/08/24 08:09:33;;;;;;;2.53;1.90;;;24.30;99.90;;;;;;4148111;28;20169;-86
2023/08/24 08:11:34;;;;;;;3.22;1.55;;;24.20;99.90;;;;;;4164365;28;20192;-86
2023/08/24 08:13:35;;;;;;;2.15;1.60;;;24.20;99.90;;;;;;4148087;28;20187;-87
2023/08/24 08:15:38;;;;;;;3.85;1.52;;;24.20;99.90;;;;;;4147955;28;20561;-87
2023/08/24 08:17:38;;;;;;;2.55;1.40;;;24.30;99.90;;;;;;4148044;28;20605;-88
2023/08/24 08:19:39;;;;;;;2.40;1.67;;;24.30;99.90;;;;;;4147815;28;20161;-87
2023/08/24 08:21:40;;;;;;;3.40;1.85;;;24.30;99.90;;;;;;4147706;28;20319;-88
2023/08/24 08:23:41;;;;;;;2.95;1.90;;;24.30;99.90;;;;;;4164427;28;20214;-87
2023/08/24 08:25:42;;;;;;;2.92;1.70;;;24.20;99.90;;;;;;4164190;28;20278;-88
2023/08/24 08:27:43;;;;;;;3.05;1.80;;;24.40;99.90;;;;;;4180749;28;20245;-87
2023/08/24 08:29:44;;;;;;;3.00;1.50;;;24.70;99.90;;;;;;4147744;28;20169;-87
2023/08/24 08:31:44;;;;;;;2.45;1.80;;;24.80;99.90;;;;;;4147871;28;20196;-87
2023/08/24 08:33:45;;;;;;;2.85;1.70;;;24.70;99.90;;;;;;4147968;28;20220;-87
2023/08/24 08:35:46;;;;;;;4.20;2.10;;;24.80;99.90;;;;;;4164170;28;20302;-87
2023/08/24 08:37:49;;;;;;;5.20;2.08;;;24.80;99.90;;;;;;4147772;28;20674;-87
2023/08/24 08:39:50;;;;;;;3.40;1.70;;;24.60;99.90;;;;;;4147794;28;20757;-87
2023/08/24 08:41:51;;;;;;;2.92;1.63;;;24.50;99.90;;;;;;4147671;28;20225;-87
2023/08/24 08:43:51;;;;;;;6.40;1.77;;;24.40;99.90;;;;;;4147610;28;20169;-87
2023/08/24 08:45:55;;;;;;;4.07;2.00;;;24.50;99.90;;;;;;4164125;28;20591;-87
2023/08/24 08:47:59;;;;;;;9.32;2.00;;;24.30;99.90;;;;;;4163879;28;20176;-88
2023/08/24 08:50:02;;;;;;;2.92;1.80;;;24.30;99.90;;;;;;4180400;28;20171;-87
2023/08/24 08:52:03;;;;;;;2.92;1.83;;;24.40;99.90;;;;;;4164008;28;20227;-87
2023/08/24 08:54:05;;;;;;;8.32;2.55;;;24.50;99.90;;;;;;4164142;28;20636;-87
2023/08/24 08:56:07;;;;;;;2.45;1.42;;;24.60;99.90;;;;;;4164103;28;20172;-88
2023/08/24 08:58:08;;;;;;;3.35;1.67;;;24.70;99.90;;;;;;4164051;28;20295;-87
2023/08/24 09:00:13;;;;;;;3.33;1.63;;;24.80;99.90;;;;;;4182156;28;20203;-87
2023/08/24 09:02:17;;;;;;;5.20;2.00;;;24.80;99.90;;;;;;4183900;28;20211;-87
2023/08/24 09:04:18;;;;;;;2.30;1.52;;;24.80;99.90;;;;;;4167436;28;20625;-87
2023/08/24 09:06:19;;;;;;;3.63;1.55;;;24.80;99.90;;;;;;4167414;28;20203;-87
2023/08/24 09:08:21;;;;;;;2.72;2.00;;;24.70;99.90;;;;;;4183575;28;20532;-87
2023/08/24 09:10:23;;;;;;;3.15;1.67;;;24.60;99.90;;;;;;4183139;28;20274;-86
2023/08/24 09:12:24;;;;;;;2.42;1.63;;;24.70;99.90;;;;;;4183481;28;20253;-87
2023/08/24 09:14:24;;;;;;;2.65;1.50;;;24.50;99.90;;;;;;4150873;28;20165;-87
2023/08/24 09:16:29;;;;;;;4.65;2.13;;;24.30;99.90;;;;;;4166814;28;20540;-86
2023/08/24 09:18:37;;;;;;;3.50;1.50;;;24.20;99.90;;;;;;4168056;28;20181;-87
2023/08/24 09:20:38;;;;;;;6.50;2.33;;;24.40;99.90;;;;;;4166799;28;20203;-87
2023/08/24 09:22:41;;;;;;;5.78;2.05;;;24.60;99.90;;;;;;4166772;28;20619;-89
2023/08/24 09:24:41;;;;;;;2.72;1.90;;;24.50;99.90;;;;;;4183248;28;20171;-87
2023/08/24 09:26:42;;;;;;;7.50;3.47;;;24.00;99.90;;;;;;4167845;28;20262;-87
2023/08/24 09:28:44;;;;;;;4.50;2.13;;;23.50;99.90;;;;;;4183432;28;20179;-87
2023/08/24 09:30:45;;;;;;;5.38;2.10;;;22.90;99.90;;;;;;4166804;28;20639;-88
2023/08/24 09:32:46;;;;;;;5.22;1.95;;;22.60;99.90;;;;;;4166560;28;20175;-88
2023/08/24 09:34:47;;;;;;;2.83;2.00;;;22.30;99.90;;;;;;4166732;28;20720;-88
2023/08/24 09:36:47;;;;;;;8.85;2.35;;;22.20;99.90;;;;;;4167643;28;20648;-88
2023/08/24 09:38:49;;;;;;;7.13;2.33;;;22.00;99.90;;;;;;4166765;28;20259;-88
2023/08/24 09:40:54;;;;;;;3.00;1.38;;;22.00;99.90;;;;;;4167040;28;20298;-87
2023/08/24 09:42:55;;;;;;;2.00;1.40;;;22.00;99.90;;;;;;4183006;28;20270;-88
2023/08/24 09:45:04;;;;;;;3.63;1.48;;;21.90;99.90;;;;;;4167765;28;20172;-87
2023/08/24 09:47:11;;;;;;;2.17;1.25;;;21.80;99.90;;;;;;4166667;28;20556;-89
2023/08/24 09:49:12;;;;;;;2.10;1.48;;;21.60;99.90;;;;;;4166386;28;20179;-87
2023/08/24 09:51:14;;;;;;;4.75;1.85;;;21.60;99.90;;;;;;4166618;28;20216;-87
2023/08/24 09:53:20;;;;;;;4.13;2.00;;;21.50;99.90;;;;;;4150433;28;20649;-89
2023/08/24 09:55:22;;;;;;;3.28;1.42;;;21.40;99.90;;;;;;4184279;28;20233;-87
2023/08/24 09:57:23;;;;;;;1.75;1.40;;;21.30;99.90;;;;;;4183040;28;20203;-88
2023/08/24 09:59:27;;;;;;;5.25;1.27;;;21.40;99.90;;;;;;4168424;28;20176;-86
2023/08/24 10:01:30;;;;;;;5.00;1.30;;;21.30;99.90;;;;;;4167868;28;20242;-87
2023/08/24 10:03:33;;;;;;;3.70;1.38;;;21.40;99.90;;;;;;4166487;28;20302;-87
2023/08/24 10:05:34;;;;;;;2.20;1.40;;;21.30;99.90;;;;;;4171948;28;20171;-87
2023/08/24 10:07:38;;;;;;;4.55;1.52;;;21.40;99.90;;;;;;4162199;28;20231;-88
2023/08/24 10:09:44;;;;;;;1.20;1.00;;;21.40;99.90;;;;;;4183500;28;20167;-89
2023/08/24 10:11:51;;;;;;;1.52;0.80;;;21.50;99.90;;;;;;4166373;28;20234;-88
2023/08/24 10:14:07;;;;;;;2.83;1.55;;;21.70;99.90;;;;;;4183352;28;20685;-88
2023/08/24 10:16:09;;;;;;;3.92;1.25;;;21.70;99.90;;;;;;4182866;28;20174;-87
2023/08/24 10:18:10;;;;;;;1.27;1.10;;;21.70;99.90;;;;;;4182921;28;20256;-87
2023/08/24 10:20:11;;;;;;;5.40;1.30;;;21.70;99.90;;;;;;4149936;28;20197;-88
2023/08/24 10:22:13;;;;;;;1.67;1.00;;;21.70;99.90;;;;;;4150563;28;20208;-88
2023/08/24 10:24:15;;;;;;;1.25;0.88;;;21.70;99.90;;;;;;4183180;28;20172;-88
2023/08/24 10:26:17;;;;;;;2.00;1.05;;;21.70;99.90;;;;;;4166596;28;20266;-88
2023/08/24 10:28:19;;;;;;;1.13;0.82;;;21.70;99.90;;;;;;4166277;28;20179;-88
2023/08/24 10:30:21;;;;;;;7.55;0.90;;;21.70;99.90;;;;;;4166241;28;20199;-89
2023/08/24 10:32:23;;;;;;;1.60;1.20;;;21.70;99.90;;;;;;4166585;28;20571;-88